Time;durP1;ratioP1;P1;durP2;ratioP2;P2;SDS_P1;SDS_P2;PMS_P1;PMS_P2;Temp;Humidity;BMP_temperature;BMP_pressure;BME280_temperature;BME280_humidity;BME280_pressure;Samples;Min_cycle;Max_cycle;Signal;HPM_P1;HPM_P2
2021/01/13 00:02:18;;;;;;;2.73;1.53;;;;;;;;;;5108982;28;20448;-57
2021/01/13 00:04:44;;;;;;;4.23;1.63;;;4.30;1.00;;;;;;5110660;28;20442;-57
2021/01/13 00:07:09;;;;;;;3.90;1.80;;;4.10;1.00;;;;;;5110261;28;20441;-58
2021/01/13 00:09:35;;;;;;;2.17;1.10;;;4.30;1.00;;;;;;5110407;28;20386;-58
2021/01/13 00:12:00;;;;;;;4.90;1.17;;;4.30;1.00;;;;;;5109965;28;20203;-57
2021/01/13 00:14:27;;;;;;;2.50;1.80;;;4.30;1.00;;;;;;5111417;28;20233;-57
2021/01/13 00:16:53;;;;;;;4.97;1.57;;;4.30;1.00;;;;;;5113970;28;20192;-58
2021/01/13 00:19:19;;;;;;;5.33;1.30;;;4.40;1.00;;;;;;5125740;27;20436;-57
2021/01/13 00:21:53;;;;;;;2.53;1.50;;;4.40;1.00;;;;;;5113768;28;20442;-57
2021/01/13 00:24:22;;;;;;;2.80;1.80;;;4.30;1.00;;;;;;5113635;28;20455;-57
2021/01/13 00:26:48;;;;;;;3.60;1.63;;;4.20;1.00;;;;;;5113899;28;20854;-57
2021/01/13 00:29:17;;;;;;;5.77;1.53;;;4.20;1.00;;;;;;5114199;28;20436;-57
2021/01/13 00:31:46;;;;;;;2.50;1.40;;;4.20;1.00;;;;;;5112225;28;20821;-58
2021/01/13 00:34:13;;;;;;;5.93;1.87;;;4.20;1.00;;;;;;5112105;28;20454;-57
2021/01/13 00:36:39;;;;;;;2.43;1.27;;;4.30;1.00;;;;;;5112098;28;20902;-57
2021/01/13 00:39:06;;;;;;;2.50;1.63;;;4.20;1.00;;;;;;5114222;28;20428;-57
2021/01/13 00:41:32;;;;;;;4.40;1.80;;;4.30;1.00;;;;;;5113848;28;20639;-58
2021/01/13 00:43:58;;;;;;;6.63;1.57;;;4.40;1.00;;;;;;5114074;28;20544;-57
2021/01/13 00:46:24;;;;;;;2.77;1.10;;;4.30;1.00;;;;;;5112146;28;20979;-56
2021/01/13 00:48:50;;;;;;;2.43;1.50;;;4.10;1.00;;;;;;5113943;28;20205;-58
2021/01/13 00:51:16;;;;;;;2.70;1.20;;;4.10;1.00;;;;;;5113078;28;20926;-57
2021/01/13 00:53:42;;;;;;;2.90;1.60;;;4.00;1.00;;;;;;5113583;28;20369;-56
2021/01/13 00:56:07;;;;;;;4.97;1.50;;;4.00;1.00;;;;;;5113108;28;20464;-58
2021/01/13 00:58:34;;;;;;;3.30;1.50;;;4.10;1.00;;;;;;5113230;28;20181;-58
2021/01/13 01:01:01;;;;;;;7.77;2.30;;;4.10;1.00;;;;;;5119163;27;20715;-58
2021/01/13 01:03:27;;;;;;;5.00;1.10;;;4.30;1.00;;;;;;5112611;28;20460;-57
2021/01/13 01:05:52;;;;;;;1.30;0.73;;;4.20;1.00;;;;;;5113228;28;20899;-57
2021/01/13 01:08:18;;;;;;;4.07;1.40;;;4.10;1.00;;;;;;5112783;28;20533;-57
2021/01/13 01:10:52;;;;;;;4.17;1.40;;;4.20;1.00;;;;;;5113313;28;20631;-57
2021/01/13 01:13:18;;;;;;;3.40;1.33;;;4.20;1.00;;;;;;5112074;28;20469;-57
2021/01/13 01:15:44;;;;;;;3.53;1.40;;;4.20;1.00;;;;;;5094740;28;20485;-57
2021/01/13 01:18:09;;;;;;;3.60;1.33;;;4.20;1.00;;;;;;5113866;27;20436;-57
2021/01/13 01:20:35;;;;;;;3.93;1.40;;;4.20;1.00;;;;;;5113130;28;20203;-57
2021/01/13 01:23:02;;;;;;;3.20;1.33;;;4.10;1.00;;;;;;5113216;28;20202;-57
2021/01/13 01:25:31;;;;;;;4.40;1.57;;;4.10;1.00;;;;;;5112618;28;20198;-57
2021/01/13 01:27:59;;;;;;;5.23;3.20;;;4.10;1.00;;;;;;5110542;27;20438;-58
2021/01/13 01:30:27;;;;;;;5.23;1.73;;;4.10;1.00;;;;;;5112299;27;20469;-57
2021/01/13 01:32:53;;;;;;;2.77;1.07;;;4.10;1.00;;;;;;5111219;27;20437;-58
2021/01/13 01:35:19;;;;;;;2.93;1.40;;;4.10;1.00;;;;;;5111127;28;20523;-56
2021/01/13 01:37:45;;;;;;;1.43;1.30;;;4.00;1.00;;;;;;5112654;28;20428;-57
2021/01/13 01:40:13;;;;;;;5.00;1.50;;;4.00;1.00;;;;;;5111646;28;20174;-57
2021/01/13 01:42:48;;;;;;;5.70;0.90;;;4.10;1.00;;;;;;5112764;28;20478;-56
2021/01/13 01:45:16;;;;;;;2.60;1.87;;;4.20;1.00;;;;;;5108850;28;20988;-58
2021/01/13 01:48:12;;;;;;;3.67;1.50;;;4.30;1.00;;;;;;5108765;28;20443;-57
2021/01/13 01:50:40;;;;;;;5.57;2.60;;;4.10;1.00;;;;;;5107329;28;20862;-58
2021/01/13 01:53:18;;;;;;;6.77;1.77;;;4.10;1.00;;;;;;5109446;28;20428;-57
2021/01/13 01:56:02;;;;;;;6.20;1.70;;;4.10;1.00;;;;;;5112501;28;20431;-57
2021/01/13 01:58:30;;;;;;;4.53;1.93;;;3.90;1.00;;;;;;5112537;28;20439;-58
2021/01/13 02:01:00;;;;;;;9.33;1.80;;;3.90;1.00;;;;;;5112606;28;20944;-58
2021/01/13 02:03:47;;;;;;;3.97;1.30;;;4.00;1.00;;;;;;5112327;28;20527;-57
2021/01/13 02:06:15;;;;;;;8.27;1.10;;;4.10;1.00;;;;;;5111548;28;20457;-56
2021/01/13 02:08:42;;;;;;;5.40;1.70;;;4.10;1.00;;;;;;5109531;28;20436;-56
2021/01/13 02:11:18;;;;;;;4.10;1.57;;;4.10;1.00;;;;;;5107000;27;20494;-56
2021/01/13 02:13:48;;;;;;;6.33;1.73;;;4.10;1.00;;;;;;5107180;28;20463;-56
2021/01/13 02:16:15;;;;;;;4.93;1.50;;;4.10;1.00;;;;;;5110303;28;20489;-57
2021/01/13 02:18:42;;;;;;;3.53;1.37;;;4.10;1.00;;;;;;5111794;28;20443;-57
2021/01/13 02:21:13;;;;;;;11.33;1.93;;;4.10;1.00;;;;;;5111779;28;20435;-56
2021/01/13 02:23:48;;;;;;;7.47;2.47;;;4.20;1.00;;;;;;5112016;28;20880;-57
2021/01/13 02:26:44;;;;;;;7.97;1.60;;;4.30;1.00;;;;;;5111720;27;20487;-56
2021/01/13 02:29:14;;;;;;;3.53;1.40;;;4.40;1.00;;;;;;5110727;28;20465;-57
2021/01/13 02:31:40;;;;;;;6.80;1.60;;;4.30;1.00;;;;;;5111638;28;20472;-58
2021/01/13 02:34:30;;;;;;;7.73;1.57;;;4.30;1.00;;;;;;5111196;28;20443;-57
2021/01/13 02:37:33;;;;;;;8.57;1.80;;;4.20;1.00;;;;;;5118778;27;20186;-57
2021/01/13 02:40:02;;;;;;;8.43;1.87;;;4.10;1.00;;;;;;5112636;27;20435;-57
2021/01/13 02:42:35;;;;;;;4.60;1.67;;;4.10;1.00;;;;;;5111776;27;20432;-57
2021/01/13 02:45:10;;;;;;;5.77;2.40;;;4.10;1.00;;;;;;5111660;28;20973;-57
2021/01/13 02:48:01;;;;;;;8.03;2.00;;;4.10;1.00;;;;;;5106753;28;20497;-56
2021/01/13 02:50:37;;;;;;;5.10;1.60;;;4.10;1.00;;;;;;5110578;28;20524;-57
2021/01/13 02:53:15;;;;;;;7.73;1.90;;;4.10;1.00;;;;;;5107627;28;20422;-57
2021/01/13 02:55:46;;;;;;;4.93;1.77;;;4.10;1.00;;;;;;5111181;28;20432;-58
2021/01/13 02:58:18;;;;;;;5.13;1.53;;;4.00;1.00;;;;;;5110475;28;20785;-57
2021/01/13 03:00:43;;;;;;;4.73;1.60;;;4.10;1.00;;;;;;5110769;28;20471;-57
2021/01/13 03:03:10;;;;;;;3.97;2.27;;;4.00;1.00;;;;;;5111570;28;20852;-58
2021/01/13 03:05:36;;;;;;;4.57;1.43;;;4.00;1.00;;;;;;5111915;28;20536;-57
2021/01/13 03:08:06;;;;;;;3.83;1.70;;;4.00;1.00;;;;;;5112039;28;20428;-57
2021/01/13 03:10:38;;;;;;;7.17;1.80;;;4.10;1.00;;;;;;5111851;28;20701;-58
2021/01/13 03:13:06;;;;;;;1.37;1.20;;;4.20;1.00;;;;;;5111179;28;20433;-57
2021/01/13 03:15:34;;;;;;;4.57;1.80;;;4.10;1.00;;;;;;5111301;28;20565;-56
2021/01/13 03:18:36;;;;;;;3.20;1.57;;;4.20;1.00;;;;;;5108937;28;20435;-57
2021/01/13 03:21:10;;;;;;;5.63;1.10;;;4.20;1.00;;;;;;5068517;28;20461;-58
2021/01/13 03:24:08;;;;;;;5.60;1.60;;;4.10;1.00;;;;;;5111973;28;20438;-56
2021/01/13 03:26:38;;;;;;;5.97;1.87;;;4.40;1.00;;;;;;5111751;28;20967;-56
2021/01/13 03:29:05;;;;;;;5.37;1.80;;;4.40;1.00;;;;;;5110532;28;20442;-57
2021/01/13 03:31:34;;;;;;;4.70;1.73;;;4.40;1.00;;;;;;5110423;28;20496;-57
2021/01/13 03:34:28;;;;;;;7.50;2.53;;;4.30;1.00;;;;;;5107086;28;20454;-57
2021/01/13 03:37:16;;;;;;;3.00;1.67;;;4.20;1.00;;;;;;5111871;28;20434;-56
2021/01/13 03:39:42;;;;;;;4.77;1.90;;;4.20;1.00;;;;;;5111693;28;20449;-57
2021/01/13 03:42:12;;;;;;;6.77;1.90;;;4.20;1.00;;;;;;5111669;28;20478;-58
2021/01/13 03:44:40;;;;;;;4.50;1.90;;;4.10;1.00;;;;;;5110887;28;20449;-57
2021/01/13 03:47:39;;;;;;;4.60;1.63;;;4.10;1.00;;;;;;5111315;28;21184;-57
2021/01/13 03:50:08;;;;;;;9.80;2.13;;;4.00;1.00;;;;;;5115529;28;20435;-57
2021/01/13 03:52:54;;;;;;;7.27;2.23;;;4.00;1.00;;;;;;5115624;28;20543;-57
2021/01/13 03:55:22;;;;;;;11.70;2.13;;;4.10;1.00;;;;;;5113982;28;20471;-57
2021/01/13 03:57:57;;;;;;;6.80;1.83;;;4.20;1.00;;;;;;5115776;27;20448;-57
2021/01/13 04:00:43;;;;;;;5.37;1.70;;;4.30;1.00;;;;;;5115398;28;20439;-57
2021/01/13 04:03:22;;;;;;;8.43;1.93;;;4.30;1.00;;;;;;5101160;28;20534;-57
2021/01/13 04:06:05;;;;;;;8.47;2.00;;;4.20;1.00;;;;;;5115423;27;20465;-58
2021/01/13 04:08:39;;;;;;;5.50;1.60;;;4.20;1.00;;;;;;5115244;28;20934;-56
2021/01/13 04:11:10;;;;;;;5.43;1.50;;;4.10;1.00;;;;;;5111533;28;20431;-57
2021/01/13 04:13:50;;;;;;;3.93;1.77;;;4.10;1.00;;;;;;5112397;28;20488;-56
2021/01/13 04:16:21;;;;;;;8.67;2.23;;;4.10;1.00;;;;;;5114858;27;20453;-56
2021/01/13 04:18:48;;;;;;;10.37;2.70;;;4.00;1.00;;;;;;5114409;28;20445;-55
2021/01/13 04:21:17;;;;;;;3.60;1.67;;;4.00;1.00;;;;;;5114375;28;20481;-57
2021/01/13 04:23:44;;;;;;;5.73;1.80;;;4.00;1.00;;;;;;5115066;27;20730;-56
2021/01/13 04:26:11;;;;;;;4.00;1.40;;;4.00;1.00;;;;;;5114827;28;20482;-57
2021/01/13 04:28:37;;;;;;;4.40;1.90;;;4.10;1.00;;;;;;5112514;28;20925;-56
2021/01/13 04:31:03;;;;;;;6.47;2.20;;;4.10;1.00;;;;;;5111318;28;20460;-57
2021/01/13 04:33:29;;;;;;;4.20;1.70;;;4.10;1.00;;;;;;5114557;28;20446;-57
2021/01/13 04:35:55;;;;;;;4.00;1.67;;;4.10;1.00;;;;;;5113148;28;20456;-57
2021/01/13 04:38:28;;;;;;;6.77;1.70;;;4.10;1.00;;;;;;5114653;28;20445;-57
2021/01/13 04:41:17;;;;;;;3.97;1.60;;;3.90;1.00;;;;;;5115028;28;20539;-56
2021/01/13 04:43:56;;;;;;;2.90;1.60;;;3.90;1.00;;;;;;5113948;28;20465;-58
2021/01/13 04:46:36;;;;;;;5.40;1.93;;;4.00;1.00;;;;;;5113407;28;20513;-57
2021/01/13 04:49:01;;;;;;;6.53;2.03;;;4.00;1.00;;;;;;5111344;28;20433;-58
2021/01/13 04:51:31;;;;;;;4.83;2.50;;;3.90;1.00;;;;;;5114811;28;20428;-57
2021/01/13 04:53:57;;;;;;;6.63;1.57;;;4.00;1.00;;;;;;5114683;28;20180;-57
2021/01/13 04:56:26;;;;;;;6.10;2.40;;;2.50;1.00;;;;;;5113705;28;20438;-57
2021/01/13 04:59:11;;;;;;;5.67;1.97;;;4.00;1.00;;;;;;5114516;28;20457;-57
2021/01/13 05:02:16;;;;;;;4.43;1.80;;;4.00;1.00;;;;;;5113281;28;20432;-56
2021/01/13 05:04:53;;;;;;;1.30;1.20;;;3.90;1.00;;;;;;5029852;28;20482;-57
2021/01/13 05:07:38;;;;;;;4.60;1.80;;;3.90;1.00;;;;;;5105816;28;20507;-57
2021/01/13 05:10:11;;;;;;;5.40;1.60;;;3.90;1.00;;;;;;5114629;28;20433;-56
2021/01/13 05:12:50;;;;;;;7.47;2.40;;;3.90;1.00;;;;;;5114442;28;20436;-57
2021/01/13 05:15:26;;;;;;;7.40;2.00;;;4.00;1.00;;;;;;5113699;28;20443;-57
2021/01/13 05:18:03;;;;;;;8.57;2.53;;;3.90;1.00;;;;;;5110099;28;20440;-56
2021/01/13 05:20:30;;;;;;;4.93;2.40;;;3.90;1.00;;;;;;5108008;28;20539;-56
2021/01/13 05:22:57;;;;;;;5.13;2.27;;;3.90;1.00;;;;;;5112437;28;20467;-57
2021/01/13 05:25:37;;;;;;;3.90;2.23;;;4.00;1.00;;;;;;5112094;28;20547;-56
2021/01/13 05:28:07;;;;;;;5.73;2.00;;;3.90;1.00;;;;;;5113842;27;20518;-56
2021/01/13 05:30:42;;;;;;;4.00;1.70;;;3.90;1.00;;;;;;5112639;27;20486;-56
2021/01/13 05:33:10;;;;;;;5.20;2.33;;;3.90;1.00;;;;;;5113840;28;20438;-56
2021/01/13 05:35:38;;;;;;;3.17;2.10;;;4.00;1.00;;;;;;5114049;28;20434;-56
2021/01/13 05:38:05;;;;;;;5.53;2.47;;;3.90;1.00;;;;;;5113217;28;20436;-57
2021/01/13 05:40:31;;;;;;;8.13;2.77;;;4.00;1.00;;;;;;5113435;28;20443;-57
2021/01/13 05:42:59;;;;;;;3.97;2.37;;;4.00;1.00;;;;;;5111149;28;20436;-56
2021/01/13 05:45:26;;;;;;;7.00;2.33;;;4.00;1.00;;;;;;5112100;28;20469;-57
2021/01/13 05:47:54;;;;;;;8.73;2.07;;;3.90;1.00;;;;;;5111265;28;20974;-56
2021/01/13 05:50:22;;;;;;;3.70;1.70;;;4.10;1.00;;;;;;5109763;28;20451;-57
2021/01/13 05:52:50;;;;;;;6.83;2.50;;;4.00;1.00;;;;;;5106166;28;20445;-57
2021/01/13 05:55:18;;;;;;;4.07;2.10;;;3.90;1.00;;;;;;5113152;28;20436;-57
2021/01/13 05:58:00;;;;;;;5.50;1.77;;;3.90;1.00;;;;;;5109685;27;20437;-57
2021/01/13 06:00:29;;;;;;;7.00;2.43;;;3.90;1.00;;;;;;5112084;28;20920;-56
2021/01/13 06:03:02;;;;;;;5.20;1.67;;;3.90;1.00;;;;;;5113581;28;20763;-57
2021/01/13 06:05:31;;;;;;;5.23;1.70;;;3.90;1.00;;;;;;5112897;28;20497;-57
2021/01/13 06:08:07;;;;;;;3.87;3.00;;;3.90;1.00;;;;;;5112743;28;20442;-58
2021/01/13 06:10:36;;;;;;;5.70;1.50;;;3.90;1.00;;;;;;5112924;28;20592;-56
2021/01/13 06:13:06;;;;;;;5.83;1.70;;;4.00;1.00;;;;;;5110962;28;20449;-56
2021/01/13 06:15:33;;;;;;;5.83;2.30;;;3.90;1.00;;;;;;5112295;28;20461;-56
2021/01/13 06:18:00;;;;;;;9.73;2.43;;;3.90;1.00;;;;;;5112578;28;20453;-56
2021/01/13 06:20:27;;;;;;;5.53;2.37;;;4.00;1.00;;;;;;5112261;28;20959;-56
2021/01/13 06:22:55;;;;;;;5.50;3.00;;;3.90;1.00;;;;;;5110852;28;20455;-56
2021/01/13 06:25:21;;;;;;;6.80;2.73;;;4.00;1.00;;;;;;5112275;28;20462;-57
2021/01/13 06:28:24;;;;;;;5.97;2.63;;;4.10;1.00;;;;;;5112909;28;20445;-56
2021/01/13 06:31:02;;;;;;;5.20;2.37;;;4.00;1.00;;;;;;5112351;28;20457;-56
2021/01/13 06:33:34;;;;;;;9.27;2.70;;;4.00;1.00;;;;;;5111965;28;20431;-56
2021/01/13 06:36:50;;;;;;;8.13;2.83;;;4.10;1.00;;;;;;5112233;27;20970;-56
2021/01/13 06:39:17;;;;;;;7.40;2.60;;;4.00;1.00;;;;;;5066256;28;20447;-57
2021/01/13 06:41:47;;;;;;;3.40;1.87;;;4.00;1.00;;;;;;5111679;28;20467;-56
2021/01/13 06:44:13;;;;;;;7.63;1.97;;;4.00;1.00;;;;;;5112279;28;20895;-57
2021/01/13 06:46:39;;;;;;;7.00;2.40;;;4.00;1.00;;;;;;5112349;28;20953;-57
2021/01/13 06:49:21;;;;;;;4.83;2.10;;;4.00;1.00;;;;;;5111366;28;20437;-56
2021/01/13 06:51:51;;;;;;;9.97;2.50;;;4.00;1.00;;;;;;5109809;28;20241;-57
2021/01/13 06:54:21;;;;;;;3.90;1.77;;;4.10;1.00;;;;;;5110846;28;20429;-56
2021/01/13 06:56:46;;;;;;;5.00;1.93;;;3.90;1.00;;;;;;5106549;28;20514;-56
2021/01/13 06:59:13;;;;;;;7.10;2.40;;;4.10;1.00;;;;;;5112153;27;20537;-56
2021/01/13 07:01:59;;;;;;;7.20;2.10;;;4.10;1.00;;;;;;5112029;28;20184;-56
2021/01/13 07:04:26;;;;;;;5.83;1.60;;;4.10;1.00;;;;;;5112329;28;20856;-56
2021/01/13 07:06:59;;;;;;;3.20;2.30;;;4.20;1.00;;;;;;5112059;28;20550;-56
2021/01/13 07:09:45;;;;;;;6.13;2.47;;;4.10;1.00;;;;;;5111442;28;20940;-55
2021/01/13 07:12:14;;;;;;;5.33;2.00;;;4.20;1.00;;;;;;5107976;28;20449;-57
2021/01/13 07:14:42;;;;;;;6.87;1.70;;;4.20;1.00;;;;;;5105626;28;20483;-57
2021/01/13 07:17:09;;;;;;;4.30;1.90;;;4.30;1.00;;;;;;5106290;28;20443;-57
2021/01/13 07:19:36;;;;;;;8.70;2.37;;;4.20;1.00;;;;;;5108434;28;20483;-56
2021/01/13 07:22:04;;;;;;;12.00;2.60;;;4.20;1.00;;;;;;5111935;28;20447;-57
2021/01/13 07:24:30;;;;;;;5.27;1.83;;;4.20;1.00;;;;;;5109710;28;20470;-56
2021/01/13 07:26:59;;;;;;;5.40;2.47;;;4.20;1.00;;;;;;5110986;28;20493;-56
2021/01/13 07:29:27;;;;;;;4.83;2.70;;;4.20;1.00;;;;;;5106712;28;20224;-56
2021/01/13 07:31:58;;;;;;;4.80;2.97;;;4.20;1.00;;;;;;5104100;28;20878;-56
2021/01/13 07:34:29;;;;;;;6.77;2.50;;;4.20;1.00;;;;;;5106358;28;20966;-57
2021/01/13 07:37:07;;;;;;;2.40;1.37;;;4.20;1.00;;;;;;5108196;28;20810;-56
2021/01/13 07:39:58;;;;;;;4.80;2.20;;;4.10;1.00;;;;;;5111677;28;20443;-56
2021/01/13 07:42:41;;;;;;;9.87;1.70;;;4.20;1.00;;;;;;5111556;28;20478;-57
2021/01/13 07:45:08;;;;;;;5.07;2.30;;;4.10;1.00;;;;;;5110798;28;20433;-57
2021/01/13 07:47:49;;;;;;;6.30;3.60;;;4.10;1.00;;;;;;5110933;28;20549;-56
2021/01/13 07:50:15;;;;;;;8.50;2.40;;;4.20;1.00;;;;;;5110804;27;20831;-57
2021/01/13 07:52:46;;;;;;;4.00;2.40;;;4.40;1.00;;;;;;5111504;28;20439;-58
2021/01/13 07:55:20;;;;;;;5.33;2.23;;;4.50;1.00;;;;;;5111357;28;20454;-56
2021/01/13 07:57:59;;;;;;;3.53;2.03;;;4.40;1.00;;;;;;5111365;28;20511;-56
2021/01/13 08:00:36;;;;;;;7.40;2.80;;;4.40;1.00;;;;;;5111272;28;20527;-57
2021/01/13 08:03:25;;;;;;;5.87;3.50;;;4.40;1.00;;;;;;5111133;28;20448;-58
2021/01/13 08:06:28;;;;;;;4.90;1.80;;;4.30;1.00;;;;;;5109437;28;20997;-56
2021/01/13 08:09:07;;;;;;;4.43;2.00;;;4.40;1.00;;;;;;5108524;28;20485;-56
2021/01/13 08:12:09;;;;;;;4.53;2.60;;;4.40;1.00;;;;;;5111592;28;20431;-57
2021/01/13 08:14:52;;;;;;;4.30;1.90;;;4.50;1.00;;;;;;5111577;28;20839;-57
2021/01/13 08:17:46;;;;;;;5.47;2.03;;;4.50;1.00;;;;;;5111280;28;20924;-56
2021/01/13 08:20:52;;;;;;;6.17;1.80;;;4.50;1.00;;;;;;5110945;28;20428;-60
2021/01/13 08:23:29;;;;;;;10.03;2.40;;;4.60;1.00;;;;;;5111378;28;20423;-57
2021/01/13 08:26:02;;;;;;;4.80;2.60;;;4.50;1.00;;;;;;5128789;28;20947;-58
2021/01/13 08:28:37;;;;;;;6.50;2.63;;;4.70;1.00;;;;;;5130510;28;20446;-57
2021/01/13 08:31:04;;;;;;;3.20;2.07;;;4.70;1.00;;;;;;5127357;27;20581;-57
2021/01/13 08:33:41;;;;;;;4.40;1.97;;;4.80;1.00;;;;;;5108333;28;20438;-58
2021/01/13 08:36:10;;;;;;;3.63;2.20;;;4.90;1.00;;;;;;5113296;28;20443;-57
2021/01/13 08:38:37;;;;;;;8.83;2.53;;;4.90;1.00;;;;;;5114832;27;20932;-57
2021/01/13 08:41:24;;;;;;;5.63;1.43;;;4.90;1.00;;;;;;5114406;28;20444;-57
2021/01/13 08:44:05;;;;;;;1.93;1.10;;;4.90;1.00;;;;;;5111886;28;20451;-57
2021/01/13 08:46:57;;;;;;;6.23;1.60;;;4.90;1.00;;;;;;5113164;28;20549;-56
2021/01/13 08:49:25;;;;;;;3.50;1.90;;;4.90;1.00;;;;;;5125292;27;20454;-57
2021/01/13 08:52:11;;;;;;;4.40;1.70;;;4.90;1.00;;;;;;5118736;27;20436;-59
2021/01/13 08:54:42;;;;;;;5.70;1.70;;;4.80;1.00;;;;;;5114636;28;20435;-56
2021/01/13 08:57:09;;;;;;;2.73;1.33;;;4.80;1.00;;;;;;5114409;28;20438;-56
2021/01/13 08:59:46;;;;;;;8.60;1.83;;;4.80;1.00;;;;;;5114894;28;20464;-56
2021/01/13 09:02:18;;;;;;;5.30;1.60;;;4.70;1.00;;;;;;5113563;28;20513;-57
2021/01/13 09:05:00;;;;;;;5.40;2.00;;;4.70;1.00;;;;;;5113996;28;20422;-57
2021/01/13 09:07:27;;;;;;;11.20;1.90;;;4.60;1.00;;;;;;5114225;28;20551;-57
2021/01/13 09:10:02;;;;;;;7.37;1.80;;;4.70;1.00;;;;;;5114351;28;20427;-56
2021/01/13 09:12:35;;;;;;;4.30;1.87;;;4.80;1.00;;;;;;5114297;28;20439;-57
2021/01/13 09:15:09;;;;;;;14.67;2.23;;;4.70;1.00;;;;;;5116288;27;20940;-56
2021/01/13 09:17:38;;;;;;;7.50;2.50;;;4.60;1.00;;;;;;5134681;27;20787;-59
2021/01/13 09:20:26;;;;;;;7.37;2.17;;;4.70;1.00;;;;;;5126112;27;20442;-56
2021/01/13 09:23:03;;;;;;;8.10;1.90;;;4.70;1.00;;;;;;5099757;28;20432;-58
2021/01/13 09:25:42;;;;;;;3.83;1.67;;;4.70;1.00;;;;;;5111954;27;20789;-58
2021/01/13 09:28:32;;;;;;;3.40;1.67;;;4.70;1.00;;;;;;5114126;27;20444;-56
2021/01/13 09:31:11;;;;;;;6.13;2.57;;;4.80;1.00;;;;;;5112163;28;20471;-57
2021/01/13 09:33:38;;;;;;;5.80;1.90;;;4.80;1.00;;;;;;5111590;28;20811;-57
2021/01/13 09:36:04;;;;;;;4.30;1.73;;;4.70;1.00;;;;;;5113276;28;20448;-57
2021/01/13 09:38:34;;;;;;;4.77;1.90;;;4.70;1.00;;;;;;5113413;28;20931;-57
2021/01/13 09:41:04;;;;;;;5.53;2.40;;;4.70;1.00;;;;;;5111973;28;20180;-57
2021/01/13 09:43:46;;;;;;;3.53;1.57;;;4.70;1.00;;;;;;5113536;28;20460;-58
2021/01/13 09:46:21;;;;;;;4.23;1.70;;;4.60;1.00;;;;;;5113497;28;20543;-57
2021/01/13 09:48:57;;;;;;;7.23;1.90;;;4.50;1.00;;;;;;5113195;28;20437;-57
2021/01/13 09:51:23;;;;;;;4.43;2.37;;;4.60;1.00;;;;;;5113697;27;21244;-58
2021/01/13 09:53:51;;;;;;;2.90;1.53;;;4.60;1.00;;;;;;5134062;27;20996;-56
2021/01/13 09:56:17;;;;;;;3.37;2.30;;;4.60;1.00;;;;;;5131307;27;20442;-57
2021/01/13 09:58:45;;;;;;;5.53;2.37;;;4.40;1.00;;;;;;5112753;28;20829;-57
2021/01/13 10:01:16;;;;;;;8.00;2.10;;;4.40;1.00;;;;;;5112369;28;20441;-57
2021/01/13 10:03:44;;;;;;;6.77;2.27;;;4.40;1.00;;;;;;5110829;28;20454;-56
2021/01/13 10:06:14;;;;;;;7.30;3.40;;;4.30;1.00;;;;;;5113090;28;20467;-57
2021/01/13 10:08:39;;;;;;;4.33;2.20;;;4.20;1.00;;;;;;5112895;27;20461;-56
2021/01/13 10:11:07;;;;;;;8.00;2.20;;;4.30;1.00;;;;;;5112802;28;20465;-57
2021/01/13 10:13:36;;;;;;;6.10;2.07;;;4.30;1.00;;;;;;5112860;28;20235;-57
2021/01/13 10:16:02;;;;;;;6.23;2.47;;;4.40;1.00;;;;;;5113282;28;20761;-58
2021/01/13 10:18:29;;;;;;;6.60;1.87;;;4.50;1.00;;;;;;5113151;27;20949;-60
2021/01/13 10:21:00;;;;;;;2.77;1.90;;;4.50;1.00;;;;;;5113047;28;20441;-57
2021/01/13 10:23:30;;;;;;;7.33;2.47;;;4.40;1.00;;;;;;5113128;28;20446;-58
2021/01/13 10:26:04;;;;;;;4.43;1.97;;;4.40;1.00;;;;;;5110352;28;20463;-57
2021/01/13 10:28:31;;;;;;;6.60;1.70;;;4.40;1.00;;;;;;5112690;28;20848;-57
2021/01/13 10:30:56;;;;;;;4.63;1.93;;;4.40;1.00;;;;;;5111382;28;20470;-57
2021/01/13 10:33:43;;;;;;;5.73;2.00;;;4.40;1.00;;;;;;5112790;28;20512;-57
2021/01/13 10:36:32;;;;;;;5.73;2.30;;;4.80;1.00;;;;;;5112841;28;20207;-59
2021/01/13 10:39:04;;;;;;;4.00;1.67;;;4.20;1.00;;;;;;5109579;28;20422;-57
2021/01/13 10:41:30;;;;;;;10.60;2.00;;;4.10;1.00;;;;;;5111785;28;20523;-58
2021/01/13 10:44:02;;;;;;;6.17;2.00;;;4.30;1.00;;;;;;5115530;27;20474;-57
2021/01/13 10:46:41;;;;;;;5.13;1.80;;;4.50;1.00;;;;;;5120990;27;20785;-58
2021/01/13 10:49:13;;;;;;;8.07;1.80;;;4.50;1.00;;;;;;5114643;27;20946;-57
2021/01/13 10:51:41;;;;;;;7.50;2.53;;;4.60;1.00;;;;;;5112174;28;20464;-58
2021/01/13 10:54:09;;;;;;;6.37;2.03;;;4.70;1.00;;;;;;5112229;28;20442;-57
2021/01/13 10:56:40;;;;;;;4.70;2.20;;;4.50;1.00;;;;;;5109106;28;20489;-58
2021/01/13 10:59:14;;;;;;;7.87;2.60;;;4.60;1.00;;;;;;5108391;28;20496;-57
2021/01/13 11:01:42;;;;;;;4.63;2.60;;;4.60;1.00;;;;;;5111185;28;20536;-56
2021/01/13 11:04:21;;;;;;;4.13;2.00;;;4.80;1.00;;;;;;5110961;28;20494;-58
2021/01/13 11:06:47;;;;;;;6.30;2.60;;;4.80;1.00;;;;;;5110300;28;20466;-59
2021/01/13 11:09:15;;;;;;;7.87;2.10;;;4.80;1.00;;;;;;5108826;28;20443;-59
2021/01/13 11:11:46;;;;;;;6.67;2.30;;;4.80;1.00;;;;;;5106802;28;20548;-59
2021/01/13 11:14:12;;;;;;;7.20;1.93;;;4.70;1.00;;;;;;5119618;27;20415;-60
2021/01/13 11:16:57;;;;;;;6.27;2.17;;;4.80;1.00;;;;;;5125087;27;20432;-59
2021/01/13 11:19:23;;;;;;;3.97;2.70;;;4.70;1.00;;;;;;5125026;27;20662;-59
2021/01/13 11:21:53;;;;;;;4.67;2.87;;;4.70;1.00;;;;;;5110740;28;20501;-60
2021/01/13 11:24:30;;;;;;;6.33;2.20;;;4.80;1.00;;;;;;5120478;27;20450;-58
2021/01/13 11:26:59;;;;;;;2.57;1.40;;;4.80;1.00;;;;;;5121585;27;20458;-59
2021/01/13 11:29:31;;;;;;;6.97;2.63;;;4.80;1.00;;;;;;5128743;27;20523;-58
2021/01/13 11:31:58;;;;;;;5.87;2.17;;;4.80;1.00;;;;;;5113834;28;20463;-60
2021/01/13 11:34:24;;;;;;;5.13;2.27;;;4.80;1.00;;;;;;5120870;28;20499;-59
2021/01/13 11:37:07;;;;;;;6.47;2.50;;;4.70;1.00;;;;;;5124684;27;20464;-60
2021/01/13 11:39:42;;;;;;;6.47;2.70;;;4.60;1.00;;;;;;5109988;28;20440;-59
2021/01/13 11:42:40;;;;;;;3.87;1.83;;;4.50;1.00;;;;;;5113797;28;20441;-59
2021/01/13 11:45:21;;;;;;;3.63;2.13;;;4.50;1.00;;;;;;5116478;27;20446;-59
2021/01/13 11:47:54;;;;;;;4.37;1.80;;;4.30;1.00;;;;;;5111758;28;20711;-58
2021/01/13 11:50:24;;;;;;;2.17;1.97;;;4.30;1.00;;;;;;5111731;28;20433;-59
2021/01/13 11:53:04;;;;;;;12.90;3.83;;;4.30;1.00;;;;;;5111653;28;20506;-59
2021/01/13 11:55:30;;;;;;;6.80;2.70;;;4.30;1.00;;;;;;5117496;28;20478;-58
2021/01/13 11:57:56;;;;;;;3.60;2.50;;;4.30;1.00;;;;;;5125474;27;20423;-61
2021/01/13 12:00:27;;;;;;;5.33;2.83;;;4.40;1.00;;;;;;5127774;27;20961;-60
2021/01/13 12:02:54;;;;;;;6.77;2.60;;;4.40;1.00;;;;;;5113274;28;20439;-58
2021/01/13 12:05:25;;;;;;;8.97;3.00;;;4.30;1.00;;;;;;5124655;27;20419;-58
2021/01/13 12:08:08;;;;;;;6.27;2.60;;;4.30;1.00;;;;;;5120877;28;20425;-60
2021/01/13 12:10:37;;;;;;;5.10;2.70;;;4.30;1.00;;;;;;5118834;27;20437;-59
2021/01/13 12:13:17;;;;;;;6.10;2.87;;;4.30;1.00;;;;;;5124925;27;20555;-59
2021/01/13 12:16:00;;;;;;;4.30;3.40;;;4.30;1.00;;;;;;5122355;27;20437;-59
2021/01/13 12:18:28;;;;;;;5.60;2.90;;;4.30;1.00;;;;;;5123823;27;20438;-59
2021/01/13 12:20:59;;;;;;;4.63;2.60;;;4.40;1.00;;;;;;5124898;27;20488;-59
2021/01/13 12:23:36;;;;;;;5.70;3.33;;;4.40;1.00;;;;;;5127248;27;20897;-58
2021/01/13 12:26:33;;;;;;;5.27;2.70;;;4.30;1.00;;;;;;5126948;27;20620;-58
2021/01/13 12:29:02;;;;;;;9.00;3.40;;;4.30;1.00;;;;;;5117178;27;20515;-58
2021/01/13 12:31:35;;;;;;;4.47;2.73;;;4.30;1.00;;;;;;5129472;27;20520;-58
2021/01/13 12:34:01;;;;;;;5.27;3.40;;;4.40;1.00;;;;;;5126022;27;20441;-60
2021/01/13 12:36:29;;;;;;;5.03;2.60;;;4.50;1.00;;;;;;5129105;27;20432;-57
2021/01/13 12:38:57;;;;;;;4.50;3.20;;;4.60;1.00;;;;;;5130607;27;20482;-58
2021/01/13 12:41:29;;;;;;;5.13;3.03;;;4.70;1.00;;;;;;5127888;27;20428;-59
2021/01/13 12:43:56;;;;;;;6.90;2.73;;;4.60;1.00;;;;;;5115810;27;20434;-59
2021/01/13 12:46:30;;;;;;;5.53;3.37;;;4.70;1.00;;;;;;5134576;27;20466;-59
2021/01/13 12:48:57;;;;;;;5.60;3.10;;;4.60;1.00;;;;;;5113139;27;20428;-59
2021/01/13 12:51:22;;;;;;;5.63;2.60;;;4.80;1.00;;;;;;5125646;27;20427;-58
2021/01/13 12:53:48;;;;;;;3.80;2.87;;;4.70;1.00;;;;;;5123254;27;20428;-58
2021/01/13 12:56:27;;;;;;;5.20;3.03;;;4.80;1.00;;;;;;5129911;27;20194;-59
2021/01/13 12:58:54;;;;;;;7.60;3.47;;;4.80;1.00;;;;;;5124122;27;20547;-58
2021/01/13 13:01:20;;;;;;;10.20;2.57;;;4.80;1.00;;;;;;5133404;27;20437;-58
2021/01/13 13:03:47;;;;;;;6.33;2.97;;;4.90;1.00;;;;;;5124402;27;20517;-58
2021/01/13 13:06:22;;;;;;;6.67;2.30;;;5.00;1.00;;;;;;5129714;27;20472;-59
2021/01/13 13:08:49;;;;;;;4.23;3.10;;;5.10;1.00;;;;;;5125188;27;20810;-58
2021/01/13 13:11:15;;;;;;;9.30;3.37;;;5.10;1.00;;;;;;5123700;27;20834;-59
2021/01/13 13:13:41;;;;;;;6.03;2.90;;;5.00;1.00;;;;;;5121291;27;20531;-59
2021/01/13 13:16:09;;;;;;;5.17;2.50;;;4.80;1.00;;;;;;5118012;27;20539;-60
2021/01/13 13:18:35;;;;;;;11.90;3.30;;;4.60;1.00;;;;;;5129049;27;20181;-57
2021/01/13 13:21:01;;;;;;;7.47;3.33;;;4.60;1.00;;;;;;5117025;27;20563;-58
2021/01/13 13:23:27;;;;;;;4.63;3.60;;;4.50;1.00;;;;;;5124655;27;20468;-59
2021/01/13 13:25:52;;;;;;;6.90;3.60;;;4.50;1.00;;;;;;5125589;27;20206;-58
2021/01/13 13:28:18;;;;;;;7.10;4.57;;;4.70;1.00;;;;;;5123589;27;20178;-59
2021/01/13 13:30:43;;;;;;;3.10;2.80;;;4.90;1.00;;;;;;5134927;27;20228;-58
2021/01/13 13:33:09;;;;;;;9.90;3.67;;;4.90;1.00;;;;;;5132249;27;20211;-59
2021/01/13 13:35:35;;;;;;;8.10;3.07;;;5.00;1.00;;;;;;5122557;27;20179;-58
2021/01/13 13:38:00;;;;;;;6.43;3.37;;;5.00;1.00;;;;;;5125978;27;20526;-58